Time;durP1;ratioP1;P1;durP2;ratioP2;P2;SDS_P1;SDS_P2;PMS_P1;PMS_P2;Temp;Humidity;BMP_temperature;BMP_pressure;BME280_temperature;BME280_humidity;BME280_pressure;Samples;Min_cycle;Max_cycle;Signal;HPM_P1;HPM_P2
2021/12/30 00:01:11;;;;;;;10.43;6.27;;;6.10;89.60;;;;;;5059480;28;20868;-78
2021/12/30 00:03:41;;;;;;;14.10;6.63;;;6.10;89.50;;;;;;5060667;28;20226;-79
2021/12/30 00:06:10;;;;;;;10.70;6.17;;;6.10;89.60;;;;;;5060922;28;20187;-79
2021/12/30 00:08:39;;;;;;;10.57;5.77;;;6.10;89.60;;;;;;5061875;28;20699;-78
2021/12/30 00:11:08;;;;;;;13.83;6.57;;;6.10;89.60;;;;;;5055264;28;20203;-78
2021/12/30 00:13:39;;;;;;;15.47;6.70;;;6.10;89.60;;;;;;5057993;28;20196;-78
2021/12/30 00:16:08;;;;;;;11.77;6.37;;;6.10;89.60;;;;;;5056004;28;20546;-77
2021/12/30 00:18:36;;;;;;;13.60;6.23;;;6.10;89.60;;;;;;5061235;28;20198;-77
2021/12/30 00:21:06;;;;;;;11.73;6.80;;;6.10;89.70;;;;;;5058473;28;20190;-78
2021/12/30 00:23:34;;;;;;;13.10;6.93;;;6.10;89.70;;;;;;5059661;28;20230;-78
2021/12/30 00:26:03;;;;;;;13.33;6.77;;;6.00;89.70;;;;;;5062317;28;20206;-77
2021/12/30 00:28:31;;;;;;;10.97;7.30;;;6.00;89.70;;;;;;5058595;28;20205;-77
2021/12/30 00:31:00;;;;;;;13.07;7.03;;;6.00;89.90;;;;;;5058117;28;20192;-77
2021/12/30 00:33:32;;;;;;;12.83;7.63;;;6.00;89.90;;;;;;5061057;28;20313;-77
2021/12/30 00:36:02;;;;;;;10.70;6.07;;;6.00;89.90;;;;;;5063160;28;20689;-77
2021/12/30 00:38:31;;;;;;;10.00;5.93;;;6.00;89.90;;;;;;5061202;28;20206;-77
2021/12/30 00:41:00;;;;;;;11.83;6.40;;;5.90;89.80;;;;;;5060272;28;20192;-77
2021/12/30 00:43:28;;;;;;;11.33;6.00;;;6.00;89.90;;;;;;5056232;28;20597;-76
2021/12/30 00:45:57;;;;;;;11.50;6.30;;;6.00;89.90;;;;;;5061391;28;20183;-76
2021/12/30 00:48:25;;;;;;;9.90;5.70;;;6.00;89.90;;;;;;5059556;28;20195;-76
2021/12/30 00:50:54;;;;;;;11.00;6.53;;;6.00;89.80;;;;;;5059693;28;20235;-76
2021/12/30 00:53:22;;;;;;;13.07;6.60;;;6.00;89.70;;;;;;5061909;28;20204;-76
2021/12/30 00:55:52;;;;;;;12.70;6.30;;;6.10;89.80;;;;;;5063623;28;20289;-76
2021/12/30 00:58:21;;;;;;;10.53;5.87;;;6.00;89.70;;;;;;5061291;28;20191;-76
2021/12/30 01:00:49;;;;;;;13.07;6.80;;;6.10;89.90;;;;;;5064571;28;20190;-76
2021/12/30 01:03:18;;;;;;;10.40;6.60;;;6.10;89.80;;;;;;5065942;28;20320;-76
2021/12/30 01:05:47;;;;;;;11.37;6.10;;;6.00;89.70;;;;;;5064870;28;20205;-76
2021/12/30 01:08:16;;;;;;;10.00;6.37;;;6.00;89.70;;;;;;5067370;28;20789;-77
2021/12/30 01:10:46;;;;;;;9.90;5.53;;;6.00;89.80;;;;;;5065457;28;20573;-75
2021/12/30 01:13:22;;;;;;;12.03;5.77;;;6.00;89.90;;;;;;5063878;28;20202;-75
2021/12/30 01:15:58;;;;;;;10.60;6.10;;;6.00;89.90;;;;;;5062260;28;20197;-75
2021/12/30 01:18:38;;;;;;;10.73;6.17;;;5.90;89.90;;;;;;5061462;28;20182;-75
2021/12/30 01:21:11;;;;;;;10.63;6.03;;;5.90;90.00;;;;;;5062891;28;20622;-76
2021/12/30 01:23:41;;;;;;;10.10;6.13;;;5.90;90.00;;;;;;5061083;28;20218;-75
2021/12/30 01:26:10;;;;;;;10.00;5.70;;;5.90;90.00;;;;;;5063009;28;20225;-75
2021/12/30 01:28:41;;;;;;;9.43;5.70;;;5.90;90.00;;;;;;5062905;28;20648;-75
2021/12/30 01:31:10;;;;;;;12.60;6.03;;;5.90;90.00;;;;;;5060525;28;20182;-75
2021/12/30 01:33:39;;;;;;;10.40;6.40;;;6.00;90.00;;;;;;5062703;28;20218;-75
2021/12/30 01:36:08;;;;;;;11.67;6.63;;;5.90;90.10;;;;;;5062862;28;20195;-75
2021/12/30 01:38:36;;;;;;;12.60;6.30;;;6.00;90.00;;;;;;5060420;28;20203;-75
2021/12/30 01:41:05;;;;;;;11.30;6.33;;;5.90;90.00;;;;;;5063081;28;20198;-75
2021/12/30 01:43:35;;;;;;;10.37;5.73;;;5.90;90.10;;;;;;5061931;28;20332;-75
2021/12/30 01:46:07;;;;;;;9.47;5.77;;;6.00;90.10;;;;;;5061670;28;20203;-75
2021/12/30 01:48:35;;;;;;;14.30;6.87;;;5.90;90.00;;;;;;5060761;28;20194;-74
2021/12/30 01:51:06;;;;;;;11.90;5.63;;;6.00;90.10;;;;;;5064280;28;20206;-74
2021/12/30 01:53:35;;;;;;;12.27;6.67;;;6.00;90.10;;;;;;5059385;28;20637;-74
2021/12/30 01:56:04;;;;;;;10.70;5.27;;;6.00;90.00;;;;;;5062426;28;20592;-74
2021/12/30 01:58:32;;;;;;;12.73;5.73;;;5.90;90.00;;;;;;5059479;28;20189;-76
2021/12/30 02:01:00;;;;;;;11.07;5.90;;;5.90;90.00;;;;;;5056526;28;20194;-74
2021/12/30 02:03:31;;;;;;;9.77;6.00;;;6.00;90.10;;;;;;5062155;28;20293;-76
2021/12/30 02:05:59;;;;;;;11.93;6.50;;;6.00;90.10;;;;;;5058845;28;20191;-74
2021/12/30 02:08:28;;;;;;;12.43;6.67;;;6.00;90.00;;;;;;5062199;28;20206;-74
2021/12/30 02:10:56;;;;;;;11.80;6.77;;;6.00;90.00;;;;;;5061143;28;20194;-74
2021/12/30 02:13:24;;;;;;;11.83;6.77;;;6.10;90.00;;;;;;5060798;28;20199;-74
2021/12/30 02:16:00;;;;;;;10.37;5.77;;;6.10;90.00;;;;;;5063391;28;20198;-75
2021/12/30 02:18:29;;;;;;;11.83;7.03;;;6.10;90.00;;;;;;5060561;28;20850;-74
2021/12/30 02:21:01;;;;;;;11.77;6.87;;;6.10;90.00;;;;;;5046468;28;20691;-75
2021/12/30 02:23:31;;;;;;;12.03;6.23;;;6.10;90.00;;;;;;5061115;28;20304;-75
2021/12/30 02:26:01;;;;;;;11.00;5.90;;;6.20;90.00;;;;;;5059727;28;20196;-75
2021/12/30 02:28:32;;;;;;;10.00;6.40;;;6.20;89.90;;;;;;5058558;28;20202;-76
2021/12/30 02:31:04;;;;;;;12.40;6.83;;;6.20;89.90;;;;;;5053598;28;20198;-75
2021/12/30 02:33:32;;;;;;;11.57;6.40;;;6.20;89.70;;;;;;5053718;28;20221;-76
2021/12/30 02:36:02;;;;;;;11.70;7.00;;;6.20;89.70;;;;;;5063031;28;20182;-76
2021/12/30 02:38:31;;;;;;;11.20;6.67;;;6.20;89.70;;;;;;5061595;28;20202;-76
2021/12/30 02:41:01;;;;;;;12.20;7.03;;;6.30;89.80;;;;;;5061822;28;20703;-75
2021/12/30 02:43:32;;;;;;;12.80;7.33;;;6.30;89.80;;;;;;5061478;28;20225;-75
2021/12/30 02:46:02;;;;;;;13.63;7.20;;;6.30;89.70;;;;;;5061041;28;20268;-75
2021/12/30 02:48:32;;;;;;;12.87;6.77;;;6.30;90.00;;;;;;5061744;28;20192;-75
2021/12/30 02:51:04;;;;;;;10.33;5.87;;;6.30;89.80;;;;;;5059917;28;20206;-75
2021/12/30 02:53:33;;;;;;;10.50;6.63;;;6.30;89.80;;;;;;5061261;28;20185;-75
2021/12/30 02:56:02;;;;;;;12.57;7.43;;;6.40;89.90;;;;;;5062522;28;20196;-75
2021/12/30 02:58:30;;;;;;;13.23;6.63;;;6.40;89.80;;;;;;5061245;28;20197;-75
2021/12/30 03:01:01;;;;;;;12.80;7.33;;;6.40;89.80;;;;;;5053064;28;20208;-75
2021/12/30 03:03:30;;;;;;;12.30;7.37;;;6.40;89.00;;;;;;5056556;28;20215;-75
2021/12/30 03:06:00;;;;;;;14.17;7.47;;;6.40;89.70;;;;;;5055972;28;20218;-74
2021/12/30 03:08:30;;;;;;;14.73;7.43;;;6.40;89.60;;;;;;5059540;28;20194;-74
2021/12/30 03:10:59;;;;;;;13.60;7.20;;;6.40;89.50;;;;;;5061729;28;20191;-74
2021/12/30 03:13:31;;;;;;;12.90;7.30;;;6.40;89.50;;;;;;5061202;28;20202;-74
2021/12/30 03:16:02;;;;;;;13.03;7.00;;;6.40;89.40;;;;;;5061917;28;20198;-74
2021/12/30 03:18:32;;;;;;;16.93;7.77;;;6.40;89.40;;;;;;5060053;28;20249;-74
2021/12/30 03:21:01;;;;;;;15.07;7.03;;;6.40;89.30;;;;;;5059868;28;20859;-74
2021/12/30 03:23:31;;;;;;;11.50;6.70;;;6.50;89.40;;;;;;5059856;28;20747;-74
2021/12/30 03:26:00;;;;;;;12.90;7.50;;;6.50;89.20;;;;;;5060977;28;20213;-74
2021/12/30 03:28:29;;;;;;;12.53;6.60;;;6.50;89.20;;;;;;5059992;28;20191;-75
2021/12/30 03:30:59;;;;;;;10.90;6.20;;;6.50;89.10;;;;;;5060369;28;20215;-76
2021/12/30 03:33:28;;;;;;;14.17;7.10;;;6.50;89.10;;;;;;5057863;28;20690;-74
2021/12/30 03:35:59;;;;;;;13.50;8.07;;;6.40;89.00;;;;;;5054367;28;20204;-74
2021/12/30 03:38:28;;;;;;;12.77;7.53;;;6.40;88.90;;;;;;5046671;28;20191;-74
2021/12/30 03:40:58;;;;;;;13.77;7.37;;;6.50;89.00;;;;;;5049303;28;20204;-75
2021/12/30 03:43:27;;;;;;;11.87;7.20;;;6.50;89.10;;;;;;5061454;28;20195;-75
2021/12/30 03:45:56;;;;;;;11.40;6.60;;;6.50;88.90;;;;;;5055894;28;20586;-75
2021/12/30 03:48:32;;;;;;;11.03;6.13;;;6.50;88.90;;;;;;5061366;28;20245;-75
2021/12/30 03:51:04;;;;;;;11.73;7.30;;;6.50;88.90;;;;;;5047863;28;20846;-75
2021/12/30 03:53:37;;;;;;;14.00;7.70;;;6.50;88.90;;;;;;5056879;28;20602;-75
2021/12/30 03:56:08;;;;;;;13.80;7.33;;;6.50;88.90;;;;;;5058204;28;20253;-76
2021/12/30 03:58:37;;;;;;;12.67;7.50;;;6.50;88.90;;;;;;5062579;28;20183;-75
2021/12/30 04:01:06;;;;;;;15.23;7.83;;;6.40;88.80;;;;;;5060637;28;20202;-75
2021/12/30 04:03:34;;;;;;;15.40;9.10;;;6.40;88.80;;;;;;5060525;28;20190;-75
2021/12/30 04:06:03;;;;;;;15.60;8.67;;;6.40;88.90;;;;;;5058781;28;20602;-76
2021/12/30 04:08:31;;;;;;;15.30;8.80;;;6.40;89.10;;;;;;5050475;28;20217;-75
2021/12/30 04:11:00;;;;;;;14.20;8.20;;;6.30;89.00;;;;;;5043417;28;20189;-76
2021/12/30 04:13:30;;;;;;;10.47;6.00;;;6.30;89.30;;;;;;5046627;28;20187;-75
2021/12/30 04:15:58;;;;;;;12.30;7.60;;;6.20;89.40;;;;;;5054231;28;20190;-75
2021/12/30 04:18:27;;;;;;;10.67;6.47;;;6.20;89.40;;;;;;5058770;28;20249;-75
2021/12/30 04:20:56;;;;;;;11.77;6.77;;;6.20;89.70;;;;;;5054759;28;20198;-75
2021/12/30 04:23:25;;;;;;;12.73;6.70;;;6.10;89.70;;;;;;5051830;28;20206;-76
2021/12/30 04:25:54;;;;;;;12.40;6.83;;;6.10;89.80;;;;;;5058620;28;20251;-75
2021/12/30 04:28:22;;;;;;;11.83;6.73;;;6.10;90.00;;;;;;5055619;28;20195;-75
2021/12/30 04:30:52;;;;;;;9.37;5.67;;;6.10;90.00;;;;;;5057532;28;20222;-75
2021/12/30 04:33:21;;;;;;;10.77;6.03;;;6.00;90.00;;;;;;5056845;28;20305;-75
2021/12/30 04:35:50;;;;;;;9.87;5.30;;;6.00;90.00;;;;;;5055051;28;20195;-75
2021/12/30 04:38:18;;;;;;;10.73;6.73;;;6.00;90.00;;;;;;5060462;28;20876;-75
2021/12/30 04:40:47;;;;;;;11.13;6.53;;;6.00;90.10;;;;;;5060395;28;20206;-75
2021/12/30 04:43:15;;;;;;;12.33;6.47;;;6.00;90.10;;;;;;5062142;28;20281;-75
2021/12/30 04:45:44;;;;;;;11.87;6.17;;;6.00;90.20;;;;;;5054588;28;20223;-75
2021/12/30 04:48:15;;;;;;;12.13;6.67;;;6.00;90.10;;;;;;5059111;28;20195;-75
2021/12/30 04:50:45;;;;;;;10.43;6.70;;;5.90;90.40;;;;;;5053153;28;20221;-74
2021/12/30 04:53:13;;;;;;;9.50;5.53;;;5.80;90.30;;;;;;5058996;28;20207;-75
2021/12/30 04:55:42;;;;;;;8.00;5.23;;;5.80;90.30;;;;;;5060848;28;20687;-75
2021/12/30 04:58:11;;;;;;;9.47;5.63;;;5.70;90.30;;;;;;5058515;28;20202;-75
2021/12/30 05:00:39;;;;;;;10.53;5.83;;;5.80;90.40;;;;;;5050769;28;20198;-75
2021/12/30 05:03:10;;;;;;;10.23;5.40;;;5.70;90.80;;;;;;5062514;28;20207;-76
2021/12/30 05:05:42;;;;;;;9.20;5.70;;;5.70;90.50;;;;;;5061304;28;20222;-75
2021/12/30 05:08:11;;;;;;;9.60;5.93;;;5.70;90.50;;;;;;5057476;28;20187;-75
2021/12/30 05:10:40;;;;;;;9.40;5.70;;;5.70;90.60;;;;;;5060522;28;20208;-75
2021/12/30 05:13:10;;;;;;;10.17;5.87;;;5.60;90.60;;;;;;5057419;28;20194;-75
2021/12/30 05:15:39;;;;;;;13.63;6.60;;;5.60;90.60;;;;;;5059707;28;20592;-75
2021/12/30 05:18:10;;;;;;;9.60;6.20;;;5.60;90.80;;;;;;5059110;28;20198;-75
2021/12/30 05:20:41;;;;;;;12.10;6.23;;;5.50;90.80;;;;;;5060730;28;20847;-75
2021/12/30 05:23:10;;;;;;;12.73;6.33;;;5.60;90.90;;;;;;5054571;28;20529;-75
2021/12/30 05:25:38;;;;;;;11.70;6.10;;;5.60;90.90;;;;;;5060871;28;20225;-76
2021/12/30 05:28:07;;;;;;;10.77;5.77;;;5.60;90.90;;;;;;5060445;28;20206;-75
2021/12/30 05:30:36;;;;;;;10.67;6.57;;;5.60;90.90;;;;;;5053433;28;20195;-75
2021/12/30 05:33:05;;;;;;;10.43;5.73;;;5.60;90.90;;;;;;5058458;28;20222;-75
2021/12/30 05:35:33;;;;;;;9.23;5.80;;;5.60;91.00;;;;;;5048572;28;20290;-75
2021/12/30 05:38:03;;;;;;;10.63;6.30;;;5.60;91.20;;;;;;5053588;28;20206;-75
2021/12/30 05:40:33;;;;;;;9.93;5.53;;;5.60;91.20;;;;;;5048732;28;20593;-75
2021/12/30 05:43:02;;;;;;;10.27;5.63;;;5.60;91.20;;;;;;5050081;28;20700;-75
2021/12/30 05:45:31;;;;;;;9.53;5.57;;;5.50;91.20;;;;;;5062564;28;20297;-75
2021/12/30 05:48:00;;;;;;;8.20;5.37;;;5.50;91.20;;;;;;5051211;28;20200;-75
2021/12/30 05:50:32;;;;;;;11.37;6.33;;;5.50;91.20;;;;;;5065029;28;20202;-75
2021/12/30 05:53:01;;;;;;;10.10;5.73;;;5.50;91.20;;;;;;5047681;28;20191;-75
2021/12/30 05:55:31;;;;;;;11.80;7.17;;;5.40;91.30;;;;;;5059558;28;20194;-76
2021/12/30 05:58:00;;;;;;;10.93;5.87;;;5.40;91.30;;;;;;5060085;28;20197;-76
2021/12/30 06:00:31;;;;;;;11.57;6.43;;;5.50;91.40;;;;;;5052014;28;20199;-76
2021/12/30 06:03:00;;;;;;;10.70;6.37;;;5.50;91.50;;;;;;5046063;28;20773;-75
2021/12/30 06:05:29;;;;;;;9.60;5.57;;;5.50;91.50;;;;;;5062648;28;20309;-75
2021/12/30 06:07:57;;;;;;;9.93;5.90;;;5.50;91.40;;;;;;5063775;28;20710;-75
2021/12/30 06:10:26;;;;;;;13.47;6.37;;;5.50;91.40;;;;;;5058401;28;20202;-75
2021/12/30 06:12:55;;;;;;;9.63;5.60;;;5.50;91.40;;;;;;5058634;28;20198;-75
2021/12/30 06:15:24;;;;;;;9.27;5.23;;;5.50;91.40;;;;;;5050317;28;20276;-76
2021/12/30 06:17:52;;;;;;;9.07;5.93;;;5.50;91.30;;;;;;5046038;28;20199;-75
2021/12/30 06:20:21;;;;;;;10.07;5.50;;;5.50;91.30;;;;;;5043999;28;20253;-75
2021/12/30 06:22:50;;;;;;;11.53;6.67;;;5.50;91.30;;;;;;5056299;28;20205;-75
2021/12/30 06:25:18;;;;;;;11.17;6.10;;;5.50;91.30;;;;;;5048341;28;20218;-75
2021/12/30 06:27:46;;;;;;;9.73;6.00;;;5.50;91.30;;;;;;5056454;28;20204;-75
2021/12/30 06:30:17;;;;;;;8.97;5.23;;;5.50;91.30;;;;;;5052785;28;20191;-76
2021/12/30 06:32:45;;;;;;;9.87;5.33;;;5.50;91.30;;;;;;5049482;28;20201;-76
2021/12/30 06:35:13;;;;;;;9.77;5.63;;;5.50;91.30;;;;;;5055608;28;20186;-75
2021/12/30 06:37:43;;;;;;;9.73;5.57;;;5.50;91.30;;;;;;5058590;28;20532;-76
2021/12/30 06:40:13;;;;;;;9.97;6.07;;;5.50;91.30;;;;;;5052258;28;20194;-76
2021/12/30 06:42:43;;;;;;;12.70;6.63;;;5.60;91.30;;;;;;5056945;28;20248;-76
2021/12/30 06:45:34;;;;;;;11.53;6.67;;;5.60;91.30;;;;;;5047790;28;20182;-75
2021/12/30 06:48:05;;;;;;;11.47;6.30;;;5.60;91.30;;;;;;5060457;28;20199;-75
2021/12/30 06:50:34;;;;;;;12.83;6.40;;;5.60;91.30;;;;;;5054337;28;20623;-75
2021/12/30 06:53:02;;;;;;;12.07;6.50;;;5.60;91.30;;;;;;5071001;28;20191;-76
2021/12/30 06:55:30;;;;;;;11.60;6.87;;;5.60;91.20;;;;;;5061204;28;20191;-74
2021/12/30 06:57:59;;;;;;;13.63;7.43;;;5.60;91.30;;;;;;5048606;28;20198;-75
2021/12/30 07:00:27;;;;;;;10.93;6.27;;;5.70;91.30;;;;;;5048013;28;20320;-75
2021/12/30 07:02:57;;;;;;;13.67;7.50;;;5.70;91.30;;;;;;5055487;28;20821;-75
2021/12/30 07:05:26;;;;;;;17.33;8.38;;;5.70;91.30;;;;;;5050981;28;20481;-75
2021/12/30 07:07:54;;;;;;;12.77;8.03;;;5.70;91.50;;;;;;5053928;28;20205;-76
2021/12/30 07:10:23;;;;;;;12.20;7.27;;;5.70;91.50;;;;;;5055985;28;20310;-76
2021/12/30 07:12:51;;;;;;;14.53;8.00;;;5.70;91.40;;;;;;5063678;28;20187;-73
2021/12/30 07:15:20;;;;;;;13.13;8.17;;;5.80;91.30;;;;;;5053469;28;20278;-74
2021/12/30 07:17:48;;;;;;;14.83;7.67;;;5.80;91.30;;;;;;5051417;28;20194;-74
2021/12/30 07:20:18;;;;;;;13.70;8.50;;;5.80;91.20;;;;;;5061997;28;20465;-74
2021/12/30 07:22:47;;;;;;;15.07;8.17;;;5.70;91.30;;;;;;5054733;28;20719;-75
2021/12/30 07:25:17;;;;;;;13.90;7.73;;;5.70;91.30;;;;;;5065476;28;20187;-74
2021/12/30 07:27:49;;;;;;;12.83;7.93;;;5.80;91.40;;;;;;5069437;28;20199;-75
2021/12/30 07:30:19;;;;;;;13.90;7.63;;;5.80;91.30;;;;;;5055807;28;20221;-74
2021/12/30 07:32:47;;;;;;;14.30;7.63;;;5.80;91.20;;;;;;5061396;28;20190;-75
2021/12/30 07:35:19;;;;;;;14.10;8.53;;;5.80;91.20;;;;;;5052035;28;20179;-75
2021/12/30 07:37:49;;;;;;;17.50;8.90;;;5.80;91.20;;;;;;5056012;28;20183;-76
2021/12/30 07:40:18;;;;;;;15.47;8.60;;;5.80;91.20;;;;;;5060474;28;20194;-75
2021/12/30 07:42:46;;;;;;;16.13;8.37;;;5.80;91.20;;;;;;5065018;28;20204;-74
2021/12/30 07:45:15;;;;;;;18.47;9.17;;;5.80;91.20;;;;;;5052309;28;20208;-75
2021/12/30 07:47:49;;;;;;;16.47;8.23;;;5.80;91.20;;;;;;5052886;28;20817;-75
2021/12/30 07:50:19;;;;;;;18.50;9.60;;;5.80;91.20;;;;;;5058349;28;20900;-74
2021/12/30 07:52:47;;;;;;;16.03;8.63;;;5.80;91.20;;;;;;5057266;28;20644;-75
2021/12/30 07:55:16;;;;;;;15.93;9.53;;;5.80;91.20;;;;;;5060241;28;20207;-74
2021/12/30 07:57:45;;;;;;;16.48;9.48;;;5.80;91.20;;;;;;5060450;28;20431;-75
2021/12/30 08:00:16;;;;;;;17.83;10.30;;;5.80;91.50;;;;;;5065249;28;20200;-74
2021/12/30 08:02:45;;;;;;;16.87;8.33;;;5.90;91.50;;;;;;5067275;28;20739;-75
2021/12/30 08:05:15;;;;;;;17.60;8.43;;;5.80;91.50;;;;;;5068577;28;20209;-74
2021/12/30 08:07:46;;;;;;;17.10;8.40;;;5.80;91.40;;;;;;5065621;28;20225;-75
2021/12/30 08:10:18;;;;;;;16.63;9.13;;;5.80;91.50;;;;;;5067490;28;20190;-74
2021/12/30 08:12:48;;;;;;;15.63;8.60;;;5.70;91.40;;;;;;5066573;28;20812;-74
2021/12/30 08:15:18;;;;;;;15.50;8.50;;;5.80;91.50;;;;;;5066547;28;20183;-74
2021/12/30 08:17:49;;;;;;;19.10;8.93;;;5.80;91.50;;;;;;5051072;28;20199;-74
2021/12/30 08:20:19;;;;;;;16.33;8.83;;;5.80;91.50;;;;;;5061951;28;20187;-74
2021/12/30 08:22:50;;;;;;;16.60;8.87;;;5.80;91.40;;;;;;5046574;28;20195;-73
2021/12/30 08:25:20;;;;;;;15.93;8.47;;;5.80;91.40;;;;;;5051148;28;20179;-73
2021/12/30 08:27:49;;;;;;;15.60;8.17;;;5.80;91.50;;;;;;5064309;28;20231;-73
2021/12/30 08:30:19;;;;;;;18.17;8.33;;;5.80;91.40;;;;;;5061279;28;20197;-74
2021/12/30 08:32:49;;;;;;;17.03;8.67;;;5.80;91.50;;;;;;5050788;28;20884;-74
2021/12/30 08:35:20;;;;;;;16.60;8.50;;;5.80;91.50;;;;;;5056266;28;20236;-74
2021/12/30 08:37:51;;;;;;;14.47;7.93;;;5.90;91.60;;;;;;5054823;28;20453;-74
2021/12/30 08:40:20;;;;;;;20.00;9.27;;;5.80;91.70;;;;;;5067844;28;20187;-74
2021/12/30 08:42:48;;;;;;;14.10;8.30;;;5.80;91.60;;;;;;5064639;28;20836;-75
2021/12/30 08:45:18;;;;;;;17.93;8.63;;;5.90;91.70;;;;;;5052499;28;20198;-74
2021/12/30 08:47:47;;;;;;;17.37;8.83;;;5.90;91.60;;;;;;5053115;28;20250;-74
2021/12/30 08:50:17;;;;;;;14.40;8.53;;;5.90;91.70;;;;;;5055369;28;20187;-73
2021/12/30 08:52:47;;;;;;;18.53;8.57;;;5.90;91.70;;;;;;5062630;28;20201;-75
2021/12/30 08:55:18;;;;;;;16.23;8.00;;;5.90;91.60;;;;;;5053851;28;20286;-74
2021/12/30 08:57:48;;;;;;;16.73;9.03;;;5.90;91.70;;;;;;5065184;28;20226;-74
2021/12/30 09:00:20;;;;;;;16.93;9.10;;;5.90;91.80;;;;;;5066734;28;20232;-74
2021/12/30 09:02:48;;;;;;;14.57;8.60;;;5.80;91.90;;;;;;5081940;28;20182;-74
2021/12/30 09:05:17;;;;;;;14.27;7.87;;;5.80;91.70;;;;;;5065184;28;20874;-73
2021/12/30 09:07:46;;;;;;;16.27;8.73;;;5.90;91.70;;;;;;5077639;28;20571;-74
2021/12/30 09:10:17;;;;;;;15.93;8.27;;;5.90;91.70;;;;;;5076506;28;20191;-74
2021/12/30 09:12:47;;;;;;;15.97;8.63;;;5.90;91.70;;;;;;5065048;28;20193;-75
2021/12/30 09:15:20;;;;;;;14.13;7.90;;;5.90;91.60;;;;;;5066312;28;20203;-74
2021/12/30 09:17:49;;;;;;;12.87;7.50;;;5.90;91.60;;;;;;5050499;28;20191;-74
2021/12/30 09:20:18;;;;;;;15.17;7.57;;;5.90;91.60;;;;;;5066511;28;20202;-74
2021/12/30 09:22:47;;;;;;;15.00;8.07;;;6.00;91.60;;;;;;5064420;28;20855;-73
2021/12/30 09:25:19;;;;;;;13.60;7.90;;;5.90;91.60;;;;;;5068827;28;20565;-74
2021/12/30 09:27:47;;;;;;;14.27;8.00;;;5.90;91.50;;;;;;5058871;28;20265;-74
2021/12/30 09:30:17;;;;;;;15.43;8.60;;;5.90;91.50;;;;;;5050489;28;20220;-74
2021/12/30 09:32:47;;;;;;;18.33;8.63;;;6.00;91.50;;;;;;5058990;28;20297;-74
2021/12/30 09:35:16;;;;;;;15.37;9.13;;;6.00;91.50;;;;;;5064315;28;20188;-73
2021/12/30 09:37:46;;;;;;;18.13;9.33;;;6.00;91.50;;;;;;5054687;28;20197;-73
2021/12/30 09:40:17;;;;;;;15.97;8.53;;;6.10;91.40;;;;;;5056113;28;20196;-74
2021/12/30 09:42:49;;;;;;;16.10;8.90;;;6.10;91.50;;;;;;5063464;28;20660;-74
2021/12/30 09:45:19;;;;;;;15.73;8.80;;;6.00;91.40;;;;;;5061548;28;20292;-75
2021/12/30 09:47:49;;;;;;;18.30;9.40;;;6.10;91.50;;;;;;5051717;28;20254;-74
2021/12/30 09:50:21;;;;;;;18.53;9.30;;;6.10;91.50;;;;;;5061243;28;20191;-73
2021/12/30 09:52:50;;;;;;;17.00;9.23;;;6.10;91.40;;;;;;5047498;28;20821;-75
2021/12/30 09:55:21;;;;;;;17.83;9.07;;;6.10;91.30;;;;;;5068331;28;20203;-73
2021/12/30 09:57:50;;;;;;;20.37;10.47;;;6.10;91.30;;;;;;5058488;28;20190;-73
2021/12/30 10:00:18;;;;;;;19.00;10.03;;;6.00;91.40;;;;;;5063884;28;20191;-73
2021/12/30 10:02:47;;;;;;;20.00;11.60;;;6.10;91.50;;;;;;5063281;28;20197;-73
2021/12/30 10:05:18;;;;;;;18.13;10.33;;;6.10;91.50;;;;;;5063996;28;20198;-73
2021/12/30 10:07:47;;;;;;;20.27;10.90;;;6.10;91.40;;;;;;5061604;28;20233;-72
2021/12/30 10:10:31;;;;;;;22.90;10.57;;;6.20;91.50;;;;;;5063403;28;20192;-73
2021/12/30 10:13:00;;;;;;;20.83;11.13;;;6.10;91.40;;;;;;5046485;28;20180;-73
2021/12/30 10:15:42;;;;;;;23.43;10.90;;;6.20;91.40;;;;;;5061836;28;20196;-73
2021/12/30 10:18:10;;;;;;;22.10;10.37;;;6.30;91.40;;;;;;5061708;28;20195;-73
2021/12/30 10:20:40;;;;;;;21.50;10.87;;;6.30;91.30;;;;;;5061927;28;20198;-74
2021/12/30 10:23:11;;;;;;;20.93;10.40;;;6.30;91.30;;;;;;5074441;28;20402;-74
2021/12/30 10:25:43;;;;;;;21.23;11.40;;;6.40;91.30;;;;;;5064999;28;20231;-74
2021/12/30 10:28:31;;;;;;;18.57;10.87;;;6.40;91.20;;;;;;5054189;28;20673;-74
2021/12/30 10:31:02;;;;;;;18.53;10.17;;;6.40;91.20;;;;;;5043471;28;20191;-74
2021/12/30 10:33:35;;;;;;;20.10;11.10;;;6.40;91.20;;;;;;5058800;28;20225;-74
2021/12/30 10:36:15;;;;;;;20.10;10.93;;;6.50;91.20;;;;;;5047520;28;20251;-76
2021/12/30 10:38:44;;;;;;;23.80;12.30;;;6.50;91.20;;;;;;5043525;28;20188;-74
2021/12/30 10:41:14;;;;;;;21.70;10.83;;;6.50;91.20;;;;;;5061909;28;20226;-74
2021/12/30 10:43:47;;;;;;;18.63;9.97;;;6.60;91.10;;;;;;5052245;28;20216;-74
2021/12/30 10:46:20;;;;;;;21.27;10.70;;;6.60;91.10;;;;;;5056205;28;20191;-74
2021/12/30 10:49:01;;;;;;;22.03;10.83;;;6.70;91.10;;;;;;5075592;28;20210;-74
2021/12/30 10:51:36;;;;;;;20.57;10.37;;;6.70;91.10;;;;;;5067639;28;20199;-74
2021/12/30 10:54:15;;;;;;;19.40;10.47;;;6.70;91.00;;;;;;5062034;28;20186;-74
2021/12/30 10:56:47;;;;;;;22.47;10.23;;;6.80;91.00;;;;;;5056486;28;20294;-73
2021/12/30 10:59:22;;;;;;;18.30;9.27;;;6.80;91.00;;;;;;5063199;28;20199;-74
2021/12/30 11:01:54;;;;;;;17.40;8.93;;;6.90;91.00;;;;;;5054186;28;20246;-73
2021/12/30 11:04:33;;;;;;;17.07;8.70;;;6.90;90.90;;;;;;5062717;28;20896;-73
2021/12/30 11:07:01;;;;;;;22.53;10.17;;;6.90;90.80;;;;;;5062498;28;20206;-74
2021/12/30 11:09:31;;;;;;;18.67;10.37;;;7.00;90.80;;;;;;5061635;28;20226;-74
2021/12/30 11:12:04;;;;;;;20.10;10.60;;;7.10;90.70;;;;;;5061672;28;20199;-74
2021/12/30 11:14:38;;;;;;;20.03;10.57;;;7.10;90.60;;;;;;5061243;28;20195;-74
2021/12/30 11:17:15;;;;;;;21.07;11.00;;;7.20;90.50;;;;;;5057128;28;20192;-74
2021/12/30 11:19:52;;;;;;;23.30;11.60;;;7.20;90.50;;;;;;5059404;28;20795;-74
2021/12/30 11:22:22;;;;;;;20.37;10.63;;;7.30;90.50;;;;;;5063373;28;20210;-76
2021/12/30 11:24:53;;;;;;;24.30;11.80;;;7.30;90.40;;;;;;5063416;28;20217;-75
2021/12/30 11:27:24;;;;;;;22.37;10.70;;;7.40;90.30;;;;;;5053641;28;21546;-75
2021/12/30 11:29:55;;;;;;;22.10;12.77;;;7.40;90.20;;;;;;5063708;28;20770;-75
2021/12/30 11:32:26;;;;;;;21.57;11.40;;;7.50;90.20;;;;;;5057224;28;21467;-74
2021/12/30 11:34:56;;;;;;;22.13;11.57;;;7.50;90.20;;;;;;5061485;28;20583;-75
2021/12/30 11:37:25;;;;;;;23.37;12.40;;;7.50;90.00;;;;;;5062227;28;20629;-74
2021/12/30 11:39:55;;;;;;;23.90;11.60;;;7.50;90.00;;;;;;5061956;28;20596;-74
2021/12/30 11:42:27;;;;;;;22.67;11.73;;;7.50;90.00;;;;;;5061838;28;20842;-75
2021/12/30 11:44:58;;;;;;;23.03;12.20;;;7.60;90.00;;;;;;5063776;28;20194;-75
2021/12/30 11:47:42;;;;;;;24.23;11.27;;;7.60;90.00;;;;;;5050696;28;20385;-77
2021/12/30 11:50:14;;;;;;;22.80;12.57;;;7.60;89.80;;;;;;5042916;28;20194;-75
2021/12/30 11:52:51;;;;;;;22.97;11.93;;;7.60;89.60;;;;;;5060984;28;20193;-75
2021/12/30 11:55:48;;;;;;;26.07;12.47;;;7.50;89.20;;;;;;5049714;28;20236;-75
2021/12/30 11:58:52;;;;;;;23.70;12.10;;;7.50;89.20;;;;;;5054288;28;20606;-76
2021/12/30 12:01:42;;;;;;;23.77;11.83;;;7.50;89.30;;;;;;5043818;28;20186;-75
2021/12/30 12:04:25;;;;;;;23.80;11.93;;;7.50;89.30;;;;;;5052325;28;20181;-75
2021/12/30 12:07:03;;;;;;;24.53;13.00;;;7.50;89.10;;;;;;5054552;28;20232;-75
2021/12/30 12:09:43;;;;;;;27.17;13.20;;;7.50;89.10;;;;;;5053953;28;20672;-75
2021/12/30 12:12:15;;;;;;;27.47;13.70;;;7.50;89.10;;;;;;5049229;28;20267;-75
2021/12/30 12:14:59;;;;;;;31.13;14.20;;;7.50;89.10;;;;;;5057057;28;20189;-75
2021/12/30 12:17:36;;;;;;;27.80;13.50;;;7.50;89.20;;;;;;5059910;28;20192;-75
2021/12/30 12:20:20;;;;;;;26.53;14.40;;;7.50;89.10;;;;;;5050855;28;20837;-75
2021/12/30 12:22:49;;;;;;;26.77;13.30;;;7.50;88.80;;;;;;5061326;28;20856;-74
2021/12/30 12:25:20;;;;;;;30.23;14.03;;;7.50;89.00;;;;;;5062323;28;20267;-74
2021/12/30 12:27:51;;;;;;;28.17;14.87;;;7.50;89.00;;;;;;5062696;28;20181;-74
2021/12/30 12:30:26;;;;;;;26.73;13.20;;;7.50;89.10;;;;;;5068652;28;20655;-75
2021/12/30 12:32:55;;;;;;;33.60;16.83;;;7.50;89.10;;;;;;5061857;28;20189;-74
2021/12/30 12:35:28;;;;;;;31.17;15.77;;;7.50;89.10;;;;;;5065092;28;20185;-75
2021/12/30 12:38:00;;;;;;;30.40;15.30;;;7.50;89.00;;;;;;5063299;28;20186;-73
2021/12/30 12:40:38;;;;;;;27.87;14.43;;;7.50;89.00;;;;;;5061701;28;20181;-75
2021/12/30 12:43:13;;;;;;;27.17;14.57;;;7.50;89.00;;;;;;5054383;28;20193;-74
2021/12/30 12:45:56;;;;;;;27.93;13.67;;;7.50;89.00;;;;;;5065858;28;20216;-74
2021/12/30 12:48:31;;;;;;;31.67;14.63;;;7.50;89.00;;;;;;5061774;28;20179;-74
2021/12/30 12:51:02;;;;;;;27.53;13.43;;;7.50;89.00;;;;;;5066123;28;20275;-74
2021/12/30 12:53:44;;;;;;;30.07;14.67;;;7.50;89.00;;;;;;5065423;28;20184;-74
2021/12/30 12:56:14;;;;;;;28.70;15.07;;;7.60;89.00;;;;;;5064987;28;20180;-74
2021/12/30 12:58:45;;;;;;;28.17;14.53;;;7.60;89.00;;;;;;5064604;28;20712;-75
2021/12/30 13:01:16;;;;;;;29.07;14.37;;;7.60;88.90;;;;;;5063306;28;20185;-74
2021/12/30 13:03:46;;;;;;;30.60;14.90;;;7.60;88.80;;;;;;5055226;28;20273;-74